Terminal Aerodrome Forecast
Issued by NWS

Home | Current Version | Previous Version | Graphics & Text | Print | Product List | Glossary On
Versions: 1 2 3 4 5 6 7 8 9 10 11 12 13 14 15 16 17 18 19
000
FTUS43 KICT 250711 AAC
TAFHUT
TAF AMD
KHUT 250711Z 2507/2606 02010KT P6SM VCTS SCT030 OVC080CB
      TEMPO 2507/2508 VRB25G45KT 2SM +TSRA OVC030CB
     FM251100 17011KT P6SM SCT120 BKN200
     FM251700 18014KT P6SM SCT200=

USA.gov is the U.S. government's official web portal to all federal, state and local government web resources and services.